Time,TemperatureF,DewpointF,PressureIn,WindDirection,WindDirectionDegrees,WindSpeedMPH,WindSpeedGustMPH,Humidity,HourlyPrecipIn,Conditions,Clouds,dailyrainin,SoftwareType,DateUTC
2013-07-08 00:00:00,88.0,0.0,29.88,West,281,9.0,15.0,15,-99.99,,,-99.99,,2013-07-08 07:00:00,
2013-07-08 00:08:00,88.0,0.0,29.89,West,279,9.0,14.0,17,-99.99,,,-99.99,,2013-07-08 07:08:00,
2013-07-08 00:16:00,88.0,0.0,29.88,West,277,6.0,14.0,15,-99.99,,,-99.99,,2013-07-08 07:16:00,
2013-07-08 00:24:00,87.0,0.0,29.89,West,277,7.0,10.0,15,-99.99,,,-99.99,,2013-07-08 07:24:00,
2013-07-08 00:32:00,88.0,0.0,29.89,WNW,290,10.0,15.0,15,-99.99,,,-99.99,,2013-07-08 07:32:00,
2013-07-08 00:40:00,88.0,0.0,29.89,WNW,283,9.0,15.0,17,-99.99,,,-99.99,,2013-07-08 07:40:00,
2013-07-08 00:48:00,88.0,0.0,29.89,West,264,10.0,13.0,15,-99.99,,,-99.99,,2013-07-08 07:48:00,
2013-07-08 00:56:00,88.0,0.0,29.89,West,274,6.0,15.0,14,-99.99,,,-99.99,,2013-07-08 07:56:00,
2013-07-08 01:04:00,86.0,0.0,29.89,SW,223,5.0,9.0,16,-99.99,,,-99.99,,2013-07-08 08:04:00,
2013-07-08 01:12:00,86.0,0.0,29.89,SW,215,7.0,7.0,16,-99.99,,,-99.99,,2013-07-08 08:12:00,
2013-07-08 01:20:00,86.0,0.0,29.89,SW,224,6.0,10.0,15,-99.99,,,-99.99,,2013-07-08 08:20:00,
2013-07-08 01:28:00,85.0,0.0,29.90,SW,233,6.0,10.0,16,-99.99,,,-99.99,,2013-07-08 08:28:00,
2013-07-08 01:36:00,87.0,0.0,29.90,WSW,246,8.0,8.0,15,-99.99,,,-99.99,,2013-07-08 08:36:00,
2013-07-08 01:44:00,86.0,0.0,29.90,West,269,7.0,10.0,15,-99.99,,,-99.99,,2013-07-08 08:44:00,
2013-07-08 01:52:00,86.0,0.0,29.90,WSW,254,3.0,10.0,16,-99.99,,,-99.99,,2013-07-08 08:52:00,
2013-07-08 02:00:00,86.0,0.0,29.90,West,270,5.0,5.0,15,-99.99,,,-99.99,,2013-07-08 09:00:00,
2013-07-08 02:08:00,84.0,0.0,29.90,SSE,151,6.0,7.0,16,-99.99,,,-99.99,,2013-07-08 09:08:00,
2013-07-08 02:16:00,84.0,0.0,29.91,South,190,5.0,10.0,16,-99.99,,,-99.99,,2013-07-08 09:16:00,
2013-07-08 02:24:00,83.0,0.0,29.90,SSE,161,8.0,8.0,17,-99.99,,,-99.99,,2013-07-08 09:24:00,
2013-07-08 02:32:00,85.0,0.0,29.91,West,261,5.0,8.0,16,-99.99,,,-99.99,,2013-07-08 09:32:00,
2013-07-08 02:40:00,84.0,0.0,29.90,North,353,5.0,8.0,16,-99.99,,,-99.99,,2013-07-08 09:40:00,
2013-07-08 02:48:00,82.0,0.0,29.90,North,355,2.0,7.0,17,-99.99,,,-99.99,,2013-07-08 09:48:00,
2013-07-08 02:56:00,83.0,0.0,29.90,West,280,7.0,7.0,16,-99.99,,,-99.99,,2013-07-08 09:56:00,
2013-07-08 03:04:00,82.0,0.0,29.90,NW,306,5.0,7.0,18,-99.99,,,-99.99,,2013-07-08 10:04:00,
2013-07-08 03:12:00,81.0,0.0,29.90,NW,308,7.0,8.0,17,-99.99,,,-99.99,,2013-07-08 10:12:00,
2013-07-08 03:20:00,82.0,0.0,29.90,NW,324,6.0,8.0,17,-99.99,,,-99.99,,2013-07-08 10:20:00,
2013-07-08 03:28:00,81.0,0.0,29.90,NW,315,5.0,9.0,18,-99.99,,,-99.99,,2013-07-08 10:28:00,
2013-07-08 03:36:00,81.0,0.0,29.90,North,353,7.0,9.0,17,-99.99,,,-99.99,,2013-07-08 10:36:00,
2013-07-08 03:44:00,82.0,0.0,29.90,North,354,5.0,8.0,17,-99.99,,,-99.99,,2013-07-08 10:44:00,
2013-07-08 03:52:00,80.0,0.0,29.90,NNE,26,2.0,6.0,18,-99.99,,,-99.99,,2013-07-08 10:52:00,
2013-07-08 04:00:00,80.0,0.0,29.90,NE,47,5.0,5.0,19,-99.99,,,-99.99,,2013-07-08 11:00:00,
2013-07-08 04:08:00,80.0,0.0,29.90,NNE,24,1.0,6.0,17,-99.99,,,-99.99,,2013-07-08 11:08:00,
2013-07-08 04:16:00,80.0,0.0,29.90,NE,35,3.0,5.0,17,-99.99,,,-99.99,,2013-07-08 11:16:00,
2013-07-08 04:24:00,81.0,0.0,29.90,NNE,18,5.0,6.0,17,-99.99,,,-99.99,,2013-07-08 11:24:00,
2013-07-08 04:32:00,81.0,0.0,29.90,NNE,17,3.0,8.0,18,-99.99,,,-99.99,,2013-07-08 11:32:00,
2013-07-08 04:40:00,80.0,0.0,29.91,North,4,2.0,8.0,18,-99.99,,,-99.99,,2013-07-08 11:40:00,
2013-07-08 04:48:00,80.0,0.0,29.91,NNW,341,6.0,9.0,18,-99.99,,,-99.99,,2013-07-08 11:48:00,
2013-07-08 04:56:00,80.0,0.0,29.91,North,351,5.0,8.0,17,-99.99,,,-99.99,,2013-07-08 11:56:00,
2013-07-08 05:04:00,80.0,0.0,29.91,NNW,346,5.0,7.0,18,-99.99,,,-99.99,,2013-07-08 12:04:00,
2013-07-08 05:12:00,80.0,0.0,29.91,North,353,5.0,8.0,18,-99.99,,,-99.99,,2013-07-08 12:12:00,
2013-07-08 05:20:00,79.0,0.0,29.91,NNE,14,2.0,7.0,18,-99.99,,,-99.99,,2013-07-08 12:20:00,
2013-07-08 05:28:00,78.0,0.0,29.92,North,6,2.0,6.0,19,-99.99,,,-99.99,,2013-07-08 12:28:00,
2013-07-08 05:36:00,78.0,0.0,29.92,North,357,2.0,6.0,19,-99.99,,,-99.99,,2013-07-08 12:36:00,
2013-07-08 05:44:00,79.0,0.0,29.92,NE,45,5.0,5.0,18,-99.99,,,-99.99,,2013-07-08 12:44:00,
2013-07-08 05:52:00,78.0,0.0,29.92,NNE,33,2.0,5.0,19,-99.99,,,-99.99,,2013-07-08 12:52:00,
2013-07-08 06:00:00,78.0,0.0,29.92,NNE,31,1.0,3.0,18,-99.99,,,-99.99,,2013-07-08 13:00:00,
2013-07-08 06:08:00,77.0,0.0,29.93,North,1,2.0,3.0,19,-99.99,,,-99.99,,2013-07-08 13:08:00,
2013-07-08 06:16:00,77.0,0.0,29.93,NNW,344,5.0,6.0,18,-99.99,,,-99.99,,2013-07-08 13:16:00,
2013-07-08 06:24:00,78.0,0.0,29.93,NNW,341,1.0,6.0,21,-99.99,,,-99.99,,2013-07-08 13:24:00,
2013-07-08 06:32:00,77.0,0.0,29.94,North,10,1.0,6.0,19,-99.99,,,-99.99,,2013-07-08 13:32:00,
2013-07-08 06:40:00,77.0,0.0,29.94,NNE,28,1.0,5.0,18,-99.99,,,-99.99,,2013-07-08 13:40:00,
2013-07-08 06:48:00,78.0,0.0,29.94,North,5,1.0,5.0,19,-99.99,,,-99.99,,2013-07-08 13:48:00,
2013-07-08 06:56:00,78.0,0.0,29.94,NNE,12,2.0,5.0,18,-99.99,,,-99.99,,2013-07-08 13:56:00,
2013-07-08 07:04:00,78.0,0.0,29.95,North,352,2.0,5.0,19,-99.99,,,-99.99,,2013-07-08 14:04:00,
2013-07-08 07:12:00,79.0,0.0,29.95,North,2,5.0,5.0,17,-99.99,,,-99.99,,2013-07-08 14:12:00,
2013-07-08 07:20:00,80.0,0.0,29.95,SE,134,2.0,6.0,17,-99.99,,,-99.99,,2013-07-08 14:20:00,
2013-07-08 07:28:00,81.0,0.0,29.96,NNE,20,2.0,5.0,17,-99.99,,,-99.99,,2013-07-08 14:28:00,
2013-07-08 07:36:00,82.0,0.0,29.96,NE,43,3.0,5.0,18,-99.99,,,-99.99,,2013-07-08 14:36:00,
2013-07-08 07:44:00,82.0,0.0,29.96,NNE,22,3.0,7.0,17,-99.99,,,-99.99,,2013-07-08 14:44:00,
2013-07-08 07:52:00,82.0,0.0,29.97,North,349,3.0,7.0,17,-99.99,,,-99.99,,2013-07-08 14:52:00,
2013-07-08 08:00:00,83.0,0.0,29.97,NE,46,3.0,7.0,17,-99.99,,,-99.99,,2013-07-08 15:00:00,
2013-07-08 08:08:00,83.0,0.0,29.97,North,11,2.0,7.0,16,-99.99,,,-99.99,,2013-07-08 15:08:00,
2013-07-08 08:16:00,84.0,0.0,29.97,NE,48,6.0,7.0,16,-99.99,,,-99.99,,2013-07-08 15:16:00,
2013-07-08 08:24:00,84.0,0.0,29.97,NE,48,6.0,7.0,16,-99.99,,,-99.99,,2013-07-08 15:24:00,
2013-07-08 08:36:00,85.0,0.0,29.97,East,101,1.0,7.0,15,-99.99,,,-99.99,,2013-07-08 15:36:00,
2013-07-08 09:12:00,89.0,0.0,29.98,East,91,2.0,7.0,15,-99.99,,,-99.99,,2013-07-08 16:12:00,
2013-07-08 09:44:00,92.0,0.0,29.97,South,173,8.0,10.0,14,-99.99,,,-99.99,,2013-07-08 16:44:00,
2013-07-08 09:52:00,92.0,0.0,29.97,South,172,13.0,13.0,17,-99.99,,,-99.99,,2013-07-08 16:52:00,
2013-07-08 10:00:00,93.0,0.0,29.97,SW,215,5.0,15.0,13,-99.99,,,-99.99,,2013-07-08 17:00:00,
2013-07-08 10:08:00,93.0,0.0,29.98,SSW,203,9.0,15.0,14,-99.99,,,-99.99,,2013-07-08 17:08:00,
2013-07-08 10:16:00,94.0,0.0,29.98,SW,229,7.0,16.0,13,-99.99,,,-99.99,,2013-07-08 17:16:00,
2013-07-08 10:24:00,94.0,0.0,29.98,East,84,0.0,12.0,13,-99.99,,,-99.99,,2013-07-08 17:24:00,
2013-07-08 10:36:00,95.0,0.0,29.97,ESE,105,5.0,10.0,14,-99.99,,,-99.99,,2013-07-08 17:36:00,
2013-07-08 10:44:00,96.0,0.0,29.97,South,174,7.0,9.0,12,-99.99,,,-99.99,,2013-07-08 17:44:00,
2013-07-08 10:56:00,97.0,0.0,29.97,SW,234,22.0,36.0,12,-99.99,,,-99.99,,2013-07-08 17:56:00,
2013-07-08 11:04:00,97.0,0.0,29.97,SW,221,21.0,36.0,13,-99.99,,,-99.99,,2013-07-08 18:04:00,
2013-07-08 11:13:00,97.0,0.0,29.97,SW,235,17.0,30.0,13,-99.99,,,-99.99,,2013-07-08 18:13:00,
2013-07-08 11:20:00,97.0,0.0,29.96,SW,221,20.0,28.0,13,-99.99,,,-99.99,,2013-07-08 18:20:00,
2013-07-08 11:28:00,98.0,0.0,29.96,SW,220,21.0,28.0,12,-99.99,,,-99.99,,2013-07-08 18:28:00,
2013-07-08 11:36:00,98.0,0.0,29.97,WSW,250,22.0,28.0,13,-99.99,,,-99.99,,2013-07-08 18:36:00,
2013-07-08 11:44:00,98.0,0.0,29.97,WSW,237,22.0,28.0,12,-99.99,,,-99.99,,2013-07-08 18:44:00,
2013-07-08 11:52:00,98.0,0.0,29.96,SW,216,25.0,32.0,13,-99.99,,,-99.99,,2013-07-08 18:52:00,
2013-07-08 12:00:00,98.0,0.0,29.96,WSW,237,17.0,32.0,13,-99.99,,,-99.99,,2013-07-08 19:00:00,
2013-07-08 12:08:00,98.0,0.0,29.95,SSW,196,23.0,29.0,14,-99.99,,,-99.99,,2013-07-08 19:08:00,
2013-07-08 12:16:00,98.0,0.0,29.96,SW,223,16.0,30.0,12,-99.99,,,-99.99,,2013-07-08 19:16:00,
2013-07-08 12:25:00,98.0,0.0,29.96,SSW,200,22.0,31.0,13,-99.99,,,-99.99,,2013-07-08 19:25:00,
2013-07-08 12:36:00,98.0,0.0,29.96,SSW,202,15.0,33.0,14,-99.99,,,-99.99,,2013-07-08 19:36:00,
2013-07-08 12:44:00,98.0,0.0,29.96,SW,221,23.0,30.0,11,-99.99,,,-99.99,,2013-07-08 19:44:00,
2013-07-08 12:49:00,98.0,0.0,29.95,South,186,25.0,33.0,14,-99.99,,,-99.99,,2013-07-08 19:49:00,
2013-07-08 12:57:00,98.0,0.0,29.92,South,188,31.0,38.0,13,-99.99,,,-99.99,,2013-07-08 19:57:00,
2013-07-08 13:04:00,99.0,0.0,29.96,SW,225,21.0,38.0,12,-99.99,,,-99.99,,2013-07-08 20:04:00,
2013-07-08 13:12:00,98.0,0.0,29.97,WSW,238,12.0,31.0,11,-99.99,,,-99.99,,2013-07-08 20:12:00,
2013-07-08 13:21:00,100.0,0.0,29.96,SSW,205,23.0,32.0,11,-99.99,,,-99.99,,2013-07-08 20:21:00,
2013-07-08 13:28:00,99.0,0.0,29.95,SSW,210,22.0,32.0,11,-99.99,,,-99.99,,2013-07-08 20:28:00,
2013-07-08 13:36:00,99.0,0.0,29.96,SW,229,24.0,30.0,12,-99.99,,,-99.99,,2013-07-08 20:36:00,
2013-07-08 13:44:00,100.0,0.0,29.95,SW,222,22.0,31.0,12,-99.99,,,-99.99,,2013-07-08 20:44:00,
2013-07-08 13:53:00,100.0,0.0,29.96,WSW,250,25.0,31.0,12,-99.99,,,-99.99,,2013-07-08 20:53:00,
2013-07-08 14:04:00,100.0,0.0,29.95,WSW,238,17.0,32.0,11,-99.99,,,-99.99,,2013-07-08 21:04:00,
2013-07-08 14:12:00,100.0,0.0,29.95,WSW,257,12.0,31.0,12,-99.99,,,-99.99,,2013-07-08 21:12:00,
2013-07-08 14:20:00,100.0,0.0,29.96,WSW,241,24.0,30.0,11,-99.99,,,-99.99,,2013-07-08 21:20:00,
2013-07-08 14:28:00,101.0,0.0,29.95,SW,222,25.0,28.0,11,-99.99,,,-99.99,,2013-07-08 21:28:00,
2013-07-08 14:36:00,100.0,0.0,29.95,SW,235,21.0,28.0,10,-99.99,,,-99.99,,2013-07-08 21:36:00,
2013-07-08 14:44:00,100.0,0.0,29.95,West,267,9.0,23.0,11,-99.99,,,-99.99,,2013-07-08 21:44:00,
2013-07-08 14:52:00,100.0,0.0,29.95,SSW,203,7.0,22.0,12,-99.99,,,-99.99,,2013-07-08 21:52:00,
2013-07-08 15:00:00,101.0,0.0,29.95,WSW,247,17.0,22.0,10,-99.99,,,-99.99,,2013-07-08 22:00:00,
2013-07-08 15:08:00,101.0,0.0,29.95,WSW,258,10.0,22.0,11,-99.99,,,-99.99,,2013-07-08 22:08:00,
2013-07-08 15:16:00,101.0,0.0,29.95,SW,232,17.0,28.0,11,-99.99,,,-99.99,,2013-07-08 22:16:00,
2013-07-08 15:24:00,102.0,0.0,29.95,WSW,252,18.0,28.0,10,-99.99,,,-99.99,,2013-07-08 22:24:00,
2013-07-08 15:32:00,101.0,0.0,29.94,West,281,8.0,37.0,10,-99.99,,,-99.99,,2013-07-08 22:32:00,
2013-07-08 15:40:00,101.0,0.0,29.94,WSW,256,12.0,25.0,11,-99.99,,,-99.99,,2013-07-08 22:40:00,
2013-07-08 15:48:00,102.0,0.0,29.94,West,267,15.0,22.0,10,-99.99,,,-99.99,,2013-07-08 22:48:00,
2013-07-08 15:57:00,101.0,0.0,29.94,WSW,237,9.0,24.0,11,-99.99,,,-99.99,,2013-07-08 22:57:00,
2013-07-08 16:04:00,101.0,0.0,29.94,West,268,5.0,24.0,11,-99.99,,,-99.99,,2013-07-08 23:04:00,
2013-07-08 16:12:00,101.0,0.0,29.94,WSW,250,10.0,22.0,10,-99.99,,,-99.99,,2013-07-08 23:12:00,
2013-07-08 16:20:00,102.0,0.0,29.95,WSW,237,16.0,24.0,10,-99.99,,,-99.99,,2013-07-08 23:20:00,
2013-07-08 16:28:00,102.0,0.0,29.94,WSW,252,24.0,28.0,9,-99.99,,,-99.99,,2013-07-08 23:28:00,
2013-07-08 16:36:00,100.0,0.0,29.94,SW,229,15.0,26.0,10,-99.99,,,-99.99,,2013-07-08 23:36:00,
2013-07-08 16:41:00,100.0,0.0,29.94,SW,232,22.0,25.0,10,-99.99,,,-99.99,,2013-07-08 23:41:00,
2013-07-08 16:48:00,101.0,0.0,29.93,SW,223,15.0,30.0,11,-99.99,,,-99.99,,2013-07-08 23:48:00,
2013-07-08 16:56:00,101.0,0.0,29.93,South,190,18.0,20.0,11,-99.99,,,-99.99,,2013-07-08 23:56:00,
2013-07-08 17:04:00,101.0,0.0,29.93,SW,234,15.0,31.0,11,-99.99,,,-99.99,,2013-07-09 00:04:00,
2013-07-08 17:12:00,101.0,0.0,29.94,SW,236,15.0,33.0,10,-99.99,,,-99.99,,2013-07-09 00:12:00,
2013-07-08 17:20:00,100.0,0.0,29.93,SSW,205,15.0,31.0,10,-99.99,,,-99.99,,2013-07-09 00:20:00,
2013-07-08 17:28:00,101.0,0.0,29.94,SW,234,18.0,30.0,11,-99.99,,,-99.99,,2013-07-09 00:28:00,
2013-07-08 17:36:00,100.0,0.0,29.93,SW,236,17.0,25.0,11,-99.99,,,-99.99,,2013-07-09 00:36:00,
2013-07-08 17:44:00,100.0,0.0,29.92,SW,231,12.0,21.0,11,-99.99,,,-99.99,,2013-07-09 00:44:00,
2013-07-08 17:53:00,100.0,0.0,29.93,West,264,12.0,21.0,13,-99.99,,,-99.99,,2013-07-09 00:53:00,
2013-07-08 18:00:00,100.0,0.0,29.93,WSW,246,9.0,18.0,11,-99.99,,,-99.99,,2013-07-09 01:00:00,
2013-07-08 18:08:00,100.0,0.0,29.93,WSW,256,7.0,18.0,11,-99.99,,,-99.99,,2013-07-09 01:08:00,
2013-07-08 18:16:00,100.0,0.0,29.93,West,273,16.0,20.0,12,-99.99,,,-99.99,,2013-07-09 01:16:00,
2013-07-08 18:21:00,100.0,0.0,29.93,WNW,290,14.0,20.0,11,-99.99,,,-99.99,,2013-07-09 01:21:00,
2013-07-08 18:28:00,99.0,0.0,29.93,WSW,256,22.0,23.0,11,-99.99,,,-99.99,,2013-07-09 01:28:00,
2013-07-08 18:37:00,99.0,0.0,29.93,WSW,258,14.0,24.0,11,-99.99,,,-99.99,,2013-07-09 01:37:00,
2013-07-08 18:44:00,99.0,0.0,29.94,WSW,254,15.0,22.0,11,-99.99,,,-99.99,,2013-07-09 01:44:00,
2013-07-08 18:52:00,98.0,0.0,29.94,WSW,251,22.0,26.0,12,-99.99,,,-99.99,,2013-07-09 01:52:00,
2013-07-08 19:05:00,98.0,0.0,29.94,WSW,248,13.0,21.0,12,-99.99,,,-99.99,,2013-07-09 02:05:00,
2013-07-08 19:12:00,98.0,0.0,29.94,WSW,251,18.0,23.0,11,-99.99,,,-99.99,,2013-07-09 02:12:00,
2013-07-08 19:20:00,97.0,0.0,29.95,West,263,13.0,23.0,12,-99.99,,,-99.99,,2013-07-09 02:20:00,
2013-07-08 19:28:00,97.0,0.0,29.95,WSW,255,9.0,22.0,12,-99.99,,,-99.99,,2013-07-09 02:28:00,
2013-07-08 19:36:00,96.0,0.0,29.95,SW,236,18.0,23.0,12,-99.99,,,-99.99,,2013-07-09 02:36:00,
2013-07-08 19:44:00,96.0,0.0,29.95,West,267,12.0,22.0,12,-99.99,,,-99.99,,2013-07-09 02:44:00,
2013-07-08 19:57:00,95.0,0.0,29.95,West,269,12.0,18.0,12,-99.99,,,-99.99,,2013-07-09 02:57:00,
2013-07-08 20:05:00,94.0,0.0,29.96,West,271,13.0,21.0,12,-99.99,,,-99.99,,2013-07-09 03:05:00,
2013-07-08 20:12:00,94.0,0.0,29.96,West,275,15.0,21.0,12,-99.99,,,-99.99,,2013-07-09 03:12:00,
2013-07-08 20:20:00,93.0,0.0,29.96,WNW,284,8.0,17.0,14,-99.99,,,-99.99,,2013-07-09 03:20:00,
2013-07-08 20:28:00,93.0,0.0,29.97,West,274,8.0,16.0,14,-99.99,,,-99.99,,2013-07-09 03:28:00,
2013-07-08 20:36:00,92.0,0.0,29.97,West,267,12.0,16.0,13,-99.99,,,-99.99,,2013-07-09 03:36:00,
2013-07-08 20:44:00,92.0,0.0,29.97,WSW,255,8.0,15.0,14,-99.99,,,-99.99,,2013-07-09 03:44:00,
2013-07-08 20:52:00,91.0,0.0,29.97,West,261,9.0,14.0,13,-99.99,,,-99.99,,2013-07-09 03:52:00,
2013-07-08 20:57:00,91.0,0.0,29.97,WSW,242,8.0,14.0,16,-99.99,,,-99.99,,2013-07-09 03:57:00,
2013-07-08 21:04:00,91.0,0.0,29.98,WSW,243,14.0,16.0,13,-99.99,,,-99.99,,2013-07-09 04:04:00,
2013-07-08 21:08:00,91.0,0.0,29.98,WSW,248,10.0,16.0,13,-99.99,,,-99.99,,2013-07-09 04:08:00,
2013-07-08 21:16:00,90.0,0.0,29.98,SW,220,12.0,16.0,14,-99.99,,,-99.99,,2013-07-09 04:16:00,
2013-07-08 21:24:00,90.0,0.0,29.98,SW,224,13.0,15.0,15,-99.99,,,-99.99,,2013-07-09 04:24:00,
2013-07-08 21:36:00,90.0,0.0,29.98,WSW,240,13.0,16.0,14,-99.99,,,-99.99,,2013-07-09 04:36:00,
2013-07-08 21:44:00,89.0,0.0,29.98,WSW,249,13.0,18.0,13,-99.99,,,-99.99,,2013-07-09 04:44:00,
2013-07-08 21:52:00,90.0,0.0,29.98,WSW,239,16.0,21.0,13,-99.99,,,-99.99,,2013-07-09 04:52:00,
2013-07-08 22:00:00,90.0,0.0,29.98,SSW,213,20.0,30.0,12,-99.99,,,-99.99,,2013-07-09 05:00:00,
2013-07-08 22:08:00,90.0,0.0,29.98,SW,234,18.0,30.0,12,-99.99,,,-99.99,,2013-07-09 05:08:00,
2013-07-08 22:16:00,89.0,0.0,29.98,SSW,210,17.0,23.0,13,-99.99,,,-99.99,,2013-07-09 05:16:00,
2013-07-08 22:24:00,89.0,0.0,29.98,SW,226,10.0,23.0,13,-99.99,,,-99.99,,2013-07-09 05:24:00,
2013-07-08 22:32:00,88.0,0.0,29.99,SW,231,13.0,21.0,12,-99.99,,,-99.99,,2013-07-09 05:32:00,
2013-07-08 22:40:00,89.0,0.0,29.99,SW,217,15.0,18.0,12,-99.99,,,-99.99,,2013-07-09 05:40:00,
2013-07-08 22:48:00,88.0,0.0,29.99,SW,233,6.0,18.0,12,-99.99,,,-99.99,,2013-07-09 05:48:00,
2013-07-08 22:56:00,87.0,0.0,29.99,WSW,240,9.0,12.0,12,-99.99,,,-99.99,,2013-07-09 05:56:00,
2013-07-08 23:04:00,86.0,0.0,29.99,SSW,201,12.0,12.0,13,-99.99,,,-99.99,,2013-07-09 06:04:00,
2013-07-08 23:12:00,87.0,0.0,29.99,SW,217,7.0,12.0,13,-99.99,,,-99.99,,2013-07-09 06:12:00,
2013-07-08 23:20:00,86.0,0.0,29.99,SW,231,7.0,9.0,13,-99.99,,,-99.99,,2013-07-09 06:20:00,
2013-07-08 23:28:00,86.0,0.0,29.99,WNW,283,5.0,7.0,13,-99.99,,,-99.99,,2013-07-09 06:28:00,
2013-07-08 23:36:00,86.0,0.0,29.99,WNW,296,7.0,9.0,14,-99.99,,,-99.99,,2013-07-09 06:36:00,
2013-07-08 23:44:00,85.0,0.0,30.00,WNW,285,5.0,9.0,14,-99.99,,,-99.99,,2013-07-09 06:44:00,
2013-07-08 23:52:00,86.0,0.0,29.99,NW,311,7.0,9.0,14,-99.99,,,-99.99,,2013-07-09 06:52:00,